sensor_id;sensor_type;location;lat;lon;timestamp;P1;durP1;ratioP1;P2;durP2;ratioP2
75437;SDS011;64015;49.392;15.582;2023-04-08T00:01:52;23.40;;;11.20;;
75437;SDS011;64015;49.392;15.582;2023-04-08T00:04:18;25.77;;;13.05;;
75437;SDS011;64015;49.392;15.582;2023-04-08T00:06:44;22.70;;;11.10;;
75437;SDS011;64015;49.392;15.582;2023-04-08T00:09:10;25.67;;;11.77;;
75437;SDS011;64015;49.392;15.582;2023-04-08T00:11:36;23.88;;;11.68;;
75437;SDS011;64015;49.392;15.582;2023-04-08T00:14:02;23.40;;;10.82;;
75437;SDS011;64015;49.392;15.582;2023-04-08T00:16:29;22.70;;;11.27;;
75437;SDS011;64015;49.392;15.582;2023-04-08T00:18:54;25.08;;;10.27;;
75437;SDS011;64015;49.392;15.582;2023-04-08T00:21:21;25.05;;;11.93;;
75437;SDS011;64015;49.392;15.582;2023-04-08T00:23:47;21.58;;;10.23;;
75437;SDS011;64015;49.392;15.582;2023-04-08T00:26:14;21.40;;;11.02;;
75437;SDS011;64015;49.392;15.582;2023-04-08T00:28:40;23.50;;;11.20;;
75437;SDS011;64015;49.392;15.582;2023-04-08T00:31:07;23.33;;;10.82;;
75437;SDS011;64015;49.392;15.582;2023-04-08T00:33:32;24.85;;;11.23;;
75437;SDS011;64015;49.392;15.582;2023-04-08T00:35:58;21.30;;;11.13;;
75437;SDS011;64015;49.392;15.582;2023-04-08T00:38:25;23.88;;;11.40;;
75437;SDS011;64015;49.392;15.582;2023-04-08T00:40:52;18.75;;;10.50;;
75437;SDS011;64015;49.392;15.582;2023-04-08T00:43:17;21.98;;;11.18;;
75437;SDS011;64015;49.392;15.582;2023-04-08T00:48:11;23.50;;;10.32;;
75437;SDS011;64015;49.392;15.582;2023-04-08T00:50:37;25.05;;;10.77;;
75437;SDS011;64015;49.392;15.582;2023-04-08T00:53:03;24.13;;;11.02;;
75437;SDS011;64015;49.392;15.582;2023-04-08T00:55:29;23.20;;;10.55;;
75437;SDS011;64015;49.392;15.582;2023-04-08T00:57:55;22.08;;;11.55;;
75437;SDS011;64015;49.392;15.582;2023-04-08T01:00:21;23.20;;;10.68;;
75437;SDS011;64015;49.392;15.582;2023-04-08T01:06:14;20.30;;;10.43;;
75437;SDS011;64015;49.392;15.582;2023-04-08T01:08:31;22.58;;;10.70;;
75437;SDS011;64015;49.392;15.582;2023-04-08T01:11:00;23.65;;;11.27;;
75437;SDS011;64015;49.392;15.582;2023-04-08T01:13:29;25.15;;;10.93;;
75437;SDS011;64015;49.392;15.582;2023-04-08T01:15:57;23.48;;;12.50;;
75437;SDS011;64015;49.392;15.582;2023-04-08T01:18:23;20.70;;;10.60;;
75437;SDS011;64015;49.392;15.582;2023-04-08T01:20:50;22.60;;;11.48;;
75437;SDS011;64015;49.392;15.582;2023-04-08T01:26:03;22.50;;;11.40;;
75437;SDS011;64015;49.392;15.582;2023-04-08T01:28:29;24.55;;;11.02;;
75437;SDS011;64015;49.392;15.582;2023-04-08T01:30:57;23.50;;;11.15;;
75437;SDS011;64015;49.392;15.582;2023-04-08T01:33:24;21.35;;;10.57;;
75437;SDS011;64015;49.392;15.582;2023-04-08T01:35:52;21.27;;;10.35;;
75437;SDS011;64015;49.392;15.582;2023-04-08T01:38:21;18.92;;;9.95;;
75437;SDS011;64015;49.392;15.582;2023-04-08T01:40:48;19.98;;;9.65;;
75437;SDS011;64015;49.392;15.582;2023-04-08T01:43:16;23.58;;;11.65;;
75437;SDS011;64015;49.392;15.582;2023-04-08T01:45:43;22.35;;;10.40;;
75437;SDS011;64015;49.392;15.582;2023-04-08T01:48:11;20.13;;;10.52;;
75437;SDS011;64015;49.392;15.582;2023-04-08T01:50:39;19.85;;;9.98;;
75437;SDS011;64015;49.392;15.582;2023-04-08T01:53:07;22.30;;;11.30;;
75437;SDS011;64015;49.392;15.582;2023-04-08T01:55:35;20.58;;;9.95;;
75437;SDS011;64015;49.392;15.582;2023-04-08T01:58:03;19.13;;;9.95;;
75437;SDS011;64015;49.392;15.582;2023-04-08T02:00:32;21.65;;;9.95;;
75437;SDS011;64015;49.392;15.582;2023-04-08T02:02:59;20.48;;;9.70;;
75437;SDS011;64015;49.392;15.582;2023-04-08T02:05:26;19.52;;;10.00;;
75437;SDS011;64015;49.392;15.582;2023-04-08T02:07:52;20.13;;;10.75;;
75437;SDS011;64015;49.392;15.582;2023-04-08T02:10:17;22.02;;;10.00;;
75437;SDS011;64015;49.392;15.582;2023-04-08T02:12:45;17.98;;;9.02;;
75437;SDS011;64015;49.392;15.582;2023-04-08T02:15:14;19.70;;;9.85;;
75437;SDS011;64015;49.392;15.582;2023-04-08T02:17:44;16.67;;;8.52;;
75437;SDS011;64015;49.392;15.582;2023-04-08T02:20:18;18.83;;;9.23;;
75437;SDS011;64015;49.392;15.582;2023-04-08T02:22:49;15.23;;;8.75;;
75437;SDS011;64015;49.392;15.582;2023-04-08T02:25:23;18.98;;;9.90;;
75437;SDS011;64015;49.392;15.582;2023-04-08T02:30:16;15.38;;;8.85;;
75437;SDS011;64015;49.392;15.582;2023-04-08T02:32:44;18.27;;;9.20;;
75437;SDS011;64015;49.392;15.582;2023-04-08T02:35:11;19.25;;;9.45;;
75437;SDS011;64015;49.392;15.582;2023-04-08T02:37:38;18.48;;;9.90;;
75437;SDS011;64015;49.392;15.582;2023-04-08T02:40:21;18.10;;;9.63;;
75437;SDS011;64015;49.392;15.582;2023-04-08T02:42:47;19.70;;;9.65;;
75437;SDS011;64015;49.392;15.582;2023-04-08T02:45:12;21.20;;;10.27;;
75437;SDS011;64015;49.392;15.582;2023-04-08T02:47:38;20.40;;;9.10;;
75437;SDS011;64015;49.392;15.582;2023-04-08T02:50:04;18.60;;;10.18;;
75437;SDS011;64015;49.392;15.582;2023-04-08T02:52:30;19.58;;;10.77;;
75437;SDS011;64015;49.392;15.582;2023-04-08T02:54:55;20.27;;;9.90;;
75437;SDS011;64015;49.392;15.582;2023-04-08T02:57:21;22.77;;;11.25;;
75437;SDS011;64015;49.392;15.582;2023-04-08T02:59:47;21.48;;;9.70;;
75437;SDS011;64015;49.392;15.582;2023-04-08T03:02:12;20.55;;;10.50;;
75437;SDS011;64015;49.392;15.582;2023-04-08T03:04:38;18.30;;;9.75;;
75437;SDS011;64015;49.392;15.582;2023-04-08T03:07:04;19.75;;;9.77;;
75437;SDS011;64015;49.392;15.582;2023-04-08T03:09:30;22.13;;;11.68;;
75437;SDS011;64015;49.392;15.582;2023-04-08T03:11:55;19.73;;;10.25;;
75437;SDS011;64015;49.392;15.582;2023-04-08T03:14:21;22.95;;;10.65;;
75437;SDS011;64015;49.392;15.582;2023-04-08T03:16:46;18.98;;;9.65;;
75437;SDS011;64015;49.392;15.582;2023-04-08T03:19:12;18.98;;;9.77;;
75437;SDS011;64015;49.392;15.582;2023-04-08T03:21:38;19.08;;;8.93;;
75437;SDS011;64015;49.392;15.582;2023-04-08T03:24:04;18.00;;;9.07;;
75437;SDS011;64015;49.392;15.582;2023-04-08T03:26:30;23.30;;;10.20;;
75437;SDS011;64015;49.392;15.582;2023-04-08T03:28:55;18.75;;;9.88;;
75437;SDS011;64015;49.392;15.582;2023-04-08T03:31:21;15.73;;;8.13;;
75437;SDS011;64015;49.392;15.582;2023-04-08T03:33:47;17.33;;;8.65;;
75437;SDS011;64015;49.392;15.582;2023-04-08T03:36:12;19.05;;;9.50;;
75437;SDS011;64015;49.392;15.582;2023-04-08T03:38:38;18.30;;;9.25;;
75437;SDS011;64015;49.392;15.582;2023-04-08T03:41:04;20.13;;;9.50;;
75437;SDS011;64015;49.392;15.582;2023-04-08T03:43:30;20.27;;;9.18;;
75437;SDS011;64015;49.392;15.582;2023-04-08T03:45:55;18.88;;;8.80;;
75437;SDS011;64015;49.392;15.582;2023-04-08T03:48:21;16.08;;;8.38;;
75437;SDS011;64015;49.392;15.582;2023-04-08T03:50:47;17.10;;;8.35;;
75437;SDS011;64015;49.392;15.582;2023-04-08T03:53:12;18.42;;;8.98;;
75437;SDS011;64015;49.392;15.582;2023-04-08T03:55:38;16.58;;;9.13;;
75437;SDS011;64015;49.392;15.582;2023-04-08T03:58:04;21.30;;;10.32;;
75437;SDS011;64015;49.392;15.582;2023-04-08T04:00:30;20.45;;;9.95;;
75437;SDS011;64015;49.392;15.582;2023-04-08T04:02:56;20.25;;;8.43;;
75437;SDS011;64015;49.392;15.582;2023-04-08T04:05:22;23.40;;;9.52;;
75437;SDS011;64015;49.392;15.582;2023-04-08T04:07:47;21.17;;;10.57;;
75437;SDS011;64015;49.392;15.582;2023-04-08T04:10:13;18.48;;;9.48;;
75437;SDS011;64015;49.392;15.582;2023-04-08T04:12:39;16.40;;;8.50;;
75437;SDS011;64015;49.392;15.582;2023-04-08T04:15:05;19.67;;;9.00;;
75437;SDS011;64015;49.392;15.582;2023-04-08T04:17:31;21.25;;;10.07;;
75437;SDS011;64015;49.392;15.582;2023-04-08T04:19:56;19.30;;;9.07;;
75437;SDS011;64015;49.392;15.582;2023-04-08T04:22:22;21.50;;;9.77;;
75437;SDS011;64015;49.392;15.582;2023-04-08T04:24:48;20.58;;;10.32;;
75437;SDS011;64015;49.392;15.582;2023-04-08T04:27:14;19.77;;;9.63;;
75437;SDS011;64015;49.392;15.582;2023-04-08T04:29:41;20.63;;;8.82;;
75437;SDS011;64015;49.392;15.582;2023-04-08T04:32:08;20.70;;;9.48;;
75437;SDS011;64015;49.392;15.582;2023-04-08T04:34:34;18.30;;;8.45;;
75437;SDS011;64015;49.392;15.582;2023-04-08T04:36:59;20.58;;;11.15;;
75437;SDS011;64015;49.392;15.582;2023-04-08T04:39:25;21.15;;;9.75;;
75437;SDS011;64015;49.392;15.582;2023-04-08T04:41:51;24.38;;;10.18;;
75437;SDS011;64015;49.392;15.582;2023-04-08T04:44:16;21.67;;;10.05;;
75437;SDS011;64015;49.392;15.582;2023-04-08T04:46:42;23.23;;;10.95;;
75437;SDS011;64015;49.392;15.582;2023-04-08T04:49:08;24.38;;;11.18;;
75437;SDS011;64015;49.392;15.582;2023-04-08T04:51:34;24.85;;;10.48;;
75437;SDS011;64015;49.392;15.582;2023-04-08T04:54:00;23.33;;;10.82;;
75437;SDS011;64015;49.392;15.582;2023-04-08T04:56:25;29.38;;;11.40;;
75437;SDS011;64015;49.392;15.582;2023-04-08T04:58:51;30.20;;;12.95;;
75437;SDS011;64015;49.392;15.582;2023-04-08T05:01:17;27.73;;;12.45;;
75437;SDS011;64015;49.392;15.582;2023-04-08T05:03:43;29.20;;;12.45;;
75437;SDS011;64015;49.392;15.582;2023-04-08T05:06:09;25.52;;;12.95;;
75437;SDS011;64015;49.392;15.582;2023-04-08T05:08:34;29.88;;;12.02;;
75437;SDS011;64015;49.392;15.582;2023-04-08T05:11:00;27.88;;;12.27;;
75437;SDS011;64015;49.392;15.582;2023-04-08T05:13:27;34.30;;;14.93;;
75437;SDS011;64015;49.392;15.582;2023-04-08T05:15:53;26.88;;;13.00;;
75437;SDS011;64015;49.392;15.582;2023-04-08T05:18:19;29.73;;;13.40;;
75437;SDS011;64015;49.392;15.582;2023-04-08T05:20:44;33.92;;;13.23;;
75437;SDS011;64015;49.392;15.582;2023-04-08T05:23:11;30.77;;;12.70;;
75437;SDS011;64015;49.392;15.582;2023-04-08T05:25:37;25.67;;;10.75;;
75437;SDS011;64015;49.392;15.582;2023-04-08T05:28:03;25.05;;;11.75;;
75437;SDS011;64015;49.392;15.582;2023-04-08T05:30:29;26.42;;;11.48;;
75437;SDS011;64015;49.392;15.582;2023-04-08T05:32:55;23.98;;;11.27;;
75437;SDS011;64015;49.392;15.582;2023-04-08T05:35:21;23.33;;;10.30;;
75437;SDS011;64015;49.392;15.582;2023-04-08T05:37:47;20.80;;;9.98;;
75437;SDS011;64015;49.392;15.582;2023-04-08T05:40:12;21.45;;;10.77;;
75437;SDS011;64015;49.392;15.582;2023-04-08T05:42:38;24.10;;;11.25;;
75437;SDS011;64015;49.392;15.582;2023-04-08T05:45:04;18.95;;;8.82;;
75437;SDS011;64015;49.392;15.582;2023-04-08T05:47:30;21.63;;;9.88;;
75437;SDS011;64015;49.392;15.582;2023-04-08T05:49:57;21.10;;;10.38;;
75437;SDS011;64015;49.392;15.582;2023-04-08T05:52:23;20.92;;;9.60;;
75437;SDS011;64015;49.392;15.582;2023-04-08T05:54:48;20.50;;;9.57;;
75437;SDS011;64015;49.392;15.582;2023-04-08T05:57:14;20.83;;;9.27;;
75437;SDS011;64015;49.392;15.582;2023-04-08T05:59:41;19.42;;;9.68;;
75437;SDS011;64015;49.392;15.582;2023-04-08T06:02:06;18.92;;;8.80;;
75437;SDS011;64015;49.392;15.582;2023-04-08T06:04:32;23.55;;;10.60;;
75437;SDS011;64015;49.392;15.582;2023-04-08T06:06:58;21.15;;;9.68;;
75437;SDS011;64015;49.392;15.582;2023-04-08T06:09:25;17.27;;;8.63;;
75437;SDS011;64015;49.392;15.582;2023-04-08T06:11:51;21.48;;;9.85;;
75437;SDS011;64015;49.392;15.582;2023-04-08T06:14:17;20.48;;;8.73;;
75437;SDS011;64015;49.392;15.582;2023-04-08T06:16:42;20.05;;;9.63;;
75437;SDS011;64015;49.392;15.582;2023-04-08T06:19:08;18.00;;;8.25;;
75437;SDS011;64015;49.392;15.582;2023-04-08T06:21:34;22.08;;;9.05;;
75437;SDS011;64015;49.392;15.582;2023-04-08T06:23:59;21.50;;;10.82;;
75437;SDS011;64015;49.392;15.582;2023-04-08T06:26:25;23.38;;;10.57;;
75437;SDS011;64015;49.392;15.582;2023-04-08T06:28:52;20.92;;;9.77;;
75437;SDS011;64015;49.392;15.582;2023-04-08T06:31:18;24.75;;;11.20;;
75437;SDS011;64015;49.392;15.582;2023-04-08T06:33:43;21.23;;;10.20;;
75437;SDS011;64015;49.392;15.582;2023-04-08T06:36:09;24.05;;;11.07;;
75437;SDS011;64015;49.392;15.582;2023-04-08T06:38:37;22.63;;;11.63;;
75437;SDS011;64015;49.392;15.582;2023-04-08T06:43:29;24.13;;;10.68;;
75437;SDS011;64015;49.392;15.582;2023-04-08T06:45:56;21.33;;;9.40;;
75437;SDS011;64015;49.392;15.582;2023-04-08T06:48:23;21.42;;;9.63;;
75437;SDS011;64015;49.392;15.582;2023-04-08T06:50:53;23.52;;;10.02;;
75437;SDS011;64015;49.392;15.582;2023-04-08T06:53:22;22.08;;;10.52;;
75437;SDS011;64015;49.392;15.582;2023-04-08T06:55:48;23.42;;;9.55;;
75437;SDS011;64015;49.392;15.582;2023-04-08T06:58:15;24.75;;;10.68;;
75437;SDS011;64015;49.392;15.582;2023-04-08T07:00:43;20.02;;;10.05;;
75437;SDS011;64015;49.392;15.582;2023-04-08T07:03:09;21.73;;;10.45;;
75437;SDS011;64015;49.392;15.582;2023-04-08T07:05:37;21.85;;;9.77;;
75437;SDS011;64015;49.392;15.582;2023-04-08T07:08:07;20.25;;;9.50;;
75437;SDS011;64015;49.392;15.582;2023-04-08T07:10:33;24.58;;;10.70;;
75437;SDS011;64015;49.392;15.582;2023-04-08T07:12:59;25.08;;;10.77;;
75437;SDS011;64015;49.392;15.582;2023-04-08T07:15:25;21.80;;;9.68;;
75437;SDS011;64015;49.392;15.582;2023-04-08T07:17:51;20.13;;;8.15;;
75437;SDS011;64015;49.392;15.582;2023-04-08T07:20:16;21.50;;;9.32;;
75437;SDS011;64015;49.392;15.582;2023-04-08T07:22:42;22.30;;;9.18;;
75437;SDS011;64015;49.392;15.582;2023-04-08T07:25:08;20.83;;;8.82;;
75437;SDS011;64015;49.392;15.582;2023-04-08T07:27:34;21.25;;;8.88;;
75437;SDS011;64015;49.392;15.582;2023-04-08T07:30:00;19.98;;;8.63;;
75437;SDS011;64015;49.392;15.582;2023-04-08T07:32:27;21.13;;;8.60;;
75437;SDS011;64015;49.392;15.582;2023-04-08T07:34:53;17.42;;;8.80;;
75437;SDS011;64015;49.392;15.582;2023-04-08T07:37:18;18.73;;;7.85;;
75437;SDS011;64015;49.392;15.582;2023-04-08T07:39:44;18.92;;;8.57;;
75437;SDS011;64015;49.392;15.582;2023-04-08T07:42:10;19.17;;;8.05;;
75437;SDS011;64015;49.392;15.582;2023-04-08T07:44:36;17.83;;;8.13;;
75437;SDS011;64015;49.392;15.582;2023-04-08T07:47:02;19.63;;;8.43;;
75437;SDS011;64015;49.392;15.582;2023-04-08T07:49:28;20.10;;;9.43;;
75437;SDS011;64015;49.392;15.582;2023-04-08T07:51:54;17.83;;;8.52;;
75437;SDS011;64015;49.392;15.582;2023-04-08T07:54:20;19.20;;;8.10;;
75437;SDS011;64015;49.392;15.582;2023-04-08T07:56:45;18.48;;;8.23;;
75437;SDS011;64015;49.392;15.582;2023-04-08T07:59:11;17.10;;;8.10;;
75437;SDS011;64015;49.392;15.582;2023-04-08T08:01:37;21.35;;;7.93;;
75437;SDS011;64015;49.392;15.582;2023-04-08T08:04:03;14.93;;;7.22;;
75437;SDS011;64015;49.392;15.582;2023-04-08T08:06:29;19.13;;;8.07;;
75437;SDS011;64015;49.392;15.582;2023-04-08T08:08:58;15.20;;;6.35;;
75437;SDS011;64015;49.392;15.582;2023-04-08T08:11:24;15.82;;;6.60;;
75437;SDS011;64015;49.392;15.582;2023-04-08T08:13:53;15.40;;;6.30;;
75437;SDS011;64015;49.392;15.582;2023-04-08T08:16:20;16.25;;;7.05;;
75437;SDS011;64015;49.392;15.582;2023-04-08T08:18:46;14.63;;;5.95;;
75437;SDS011;64015;49.392;15.582;2023-04-08T08:21:12;14.18;;;6.15;;
75437;SDS011;64015;49.392;15.582;2023-04-08T08:23:38;13.32;;;5.82;;
75437;SDS011;64015;49.392;15.582;2023-04-08T08:26:05;14.63;;;6.90;;
75437;SDS011;64015;49.392;15.582;2023-04-08T08:28:34;14.73;;;6.55;;
75437;SDS011;64015;49.392;15.582;2023-04-08T08:31:00;17.55;;;7.50;;
75437;SDS011;64015;49.392;15.582;2023-04-08T08:33:27;18.20;;;7.63;;
75437;SDS011;64015;49.392;15.582;2023-04-08T08:35:53;13.68;;;5.78;;
75437;SDS011;64015;49.392;15.582;2023-04-08T08:38:20;18.77;;;6.90;;
75437;SDS011;64015;49.392;15.582;2023-04-08T08:40:46;16.38;;;7.47;;
75437;SDS011;64015;49.392;15.582;2023-04-08T08:43:11;17.60;;;7.63;;
75437;SDS011;64015;49.392;15.582;2023-04-08T08:45:38;17.67;;;7.72;;
75437;SDS011;64015;49.392;15.582;2023-04-08T08:48:05;18.48;;;7.97;;
75437;SDS011;64015;49.392;15.582;2023-04-08T08:50:34;17.45;;;7.50;;
75437;SDS011;64015;49.392;15.582;2023-04-08T08:53:00;19.63;;;7.25;;
75437;SDS011;64015;49.392;15.582;2023-04-08T08:55:28;19.17;;;7.95;;
75437;SDS011;64015;49.392;15.582;2023-04-08T08:57:56;19.80;;;8.02;;
75437;SDS011;64015;49.392;15.582;2023-04-08T09:00:38;20.52;;;9.15;;
75437;SDS011;64015;49.392;15.582;2023-04-08T09:03:21;23.58;;;10.70;;
75437;SDS011;64015;49.392;15.582;2023-04-08T09:06:02;18.52;;;6.85;;
75437;SDS011;64015;49.392;15.582;2023-04-08T09:08:34;34.58;;;22.88;;
75437;SDS011;64015;49.392;15.582;2023-04-08T09:11:12;24.67;;;11.63;;
75437;SDS011;64015;49.392;15.582;2023-04-08T09:13:46;17.95;;;6.85;;
75437;SDS011;64015;49.392;15.582;2023-04-08T09:16:13;15.73;;;6.47;;
75437;SDS011;64015;49.392;15.582;2023-04-08T09:18:42;17.13;;;6.50;;
75437;SDS011;64015;49.392;15.582;2023-04-08T09:21:09;15.13;;;7.40;;
75437;SDS011;64015;49.392;15.582;2023-04-08T09:23:43;15.32;;;6.30;;
75437;SDS011;64015;49.392;15.582;2023-04-08T09:26:20;12.52;;;6.05;;
75437;SDS011;64015;49.392;15.582;2023-04-08T09:29:05;16.80;;;8.00;;
75437;SDS011;64015;49.392;15.582;2023-04-08T09:31:36;13.98;;;6.22;;
75437;SDS011;64015;49.392;15.582;2023-04-08T09:34:15;14.88;;;6.65;;
75437;SDS011;64015;49.392;15.582;2023-04-08T09:36:46;14.30;;;5.90;;
75437;SDS011;64015;49.392;15.582;2023-04-08T09:48:11;15.10;;;6.40;;
75437;SDS011;64015;49.392;15.582;2023-04-08T10:01:38;12.18;;;5.18;;
75437;SDS011;64015;49.392;15.582;2023-04-08T10:04:09;18.67;;;8.50;;
75437;SDS011;64015;49.392;15.582;2023-04-08T10:06:44;14.55;;;6.68;;
75437;SDS011;64015;49.392;15.582;2023-04-08T10:12:19;11.85;;;5.47;;
75437;SDS011;64015;49.392;15.582;2023-04-08T10:19:41;8.85;;;4.53;;
75437;SDS011;64015;49.392;15.582;2023-04-08T10:23:04;10.02;;;5.68;;
75437;SDS011;64015;49.392;15.582;2023-04-08T10:29:46;11.93;;;6.82;;
75437;SDS011;64015;49.392;15.582;2023-04-08T10:35:08;11.77;;;5.50;;
75437;SDS011;64015;49.392;15.582;2023-04-08T10:37:52;10.05;;;5.38;;
75437;SDS011;64015;49.392;15.582;2023-04-08T10:40:18;10.80;;;5.32;;
75437;SDS011;64015;49.392;15.582;2023-04-08T10:43:00;10.18;;;5.50;;
75437;SDS011;64015;49.392;15.582;2023-04-08T10:51:30;9.73;;;5.65;;
75437;SDS011;64015;49.392;15.582;2023-04-08T10:54:16;10.88;;;6.18;;
75437;SDS011;64015;49.392;15.582;2023-04-08T10:57:24;9.40;;;4.80;;
75437;SDS011;64015;49.392;15.582;2023-04-08T10:59:50;11.93;;;6.05;;
75437;SDS011;64015;49.392;15.582;2023-04-08T11:05:20;11.13;;;6.25;;
75437;SDS011;64015;49.392;15.582;2023-04-08T11:07:57;17.45;;;8.38;;
75437;SDS011;64015;49.392;15.582;2023-04-08T11:13:14;9.77;;;5.30;;
75437;SDS011;64015;49.392;15.582;2023-04-08T11:16:13;11.65;;;6.10;;
75437;SDS011;64015;49.392;15.582;2023-04-08T11:18:39;11.00;;;5.47;;
75437;SDS011;64015;49.392;15.582;2023-04-08T11:21:10;11.48;;;6.03;;
75437;SDS011;64015;49.392;15.582;2023-04-08T11:23:36;11.52;;;6.00;;
75437;SDS011;64015;49.392;15.582;2023-04-08T11:26:20;11.18;;;5.95;;
75437;SDS011;64015;49.392;15.582;2023-04-08T11:29:29;13.80;;;5.82;;
75437;SDS011;64015;49.392;15.582;2023-04-08T11:32:15;10.10;;;5.57;;
75437;SDS011;64015;49.392;15.582;2023-04-08T11:35:08;12.48;;;6.78;;
75437;SDS011;64015;49.392;15.582;2023-04-08T11:37:43;14.23;;;7.63;;
75437;SDS011;64015;49.392;15.582;2023-04-08T11:43:09;12.40;;;6.57;;
75437;SDS011;64015;49.392;15.582;2023-04-08T12:01:36;18.13;;;7.97;;
75437;SDS011;64015;49.392;15.582;2023-04-08T12:08:17;15.68;;;8.98;;
75437;SDS011;64015;49.392;15.582;2023-04-08T12:10:45;14.77;;;7.95;;
75437;SDS011;64015;49.392;15.582;2023-04-08T12:13:13;11.05;;;5.85;;
75437;SDS011;64015;49.392;15.582;2023-04-08T12:16:00;10.32;;;5.65;;
75437;SDS011;64015;49.392;15.582;2023-04-08T12:18:26;9.15;;;5.57;;
75437;SDS011;64015;49.392;15.582;2023-04-08T12:21:04;11.73;;;6.80;;
75437;SDS011;64015;49.392;15.582;2023-04-08T12:23:48;11.10;;;6.13;;
75437;SDS011;64015;49.392;15.582;2023-04-08T12:26:14;9.68;;;5.43;;
75437;SDS011;64015;49.392;15.582;2023-04-08T12:28:42;10.13;;;5.38;;
75437;SDS011;64015;49.392;15.582;2023-04-08T12:31:19;10.00;;;5.30;;
75437;SDS011;64015;49.392;15.582;2023-04-08T12:33:59;10.25;;;5.28;;
75437;SDS011;64015;49.392;15.582;2023-04-08T12:36:28;11.60;;;5.65;;
75437;SDS011;64015;49.392;15.582;2023-04-08T12:42:33;9.18;;;5.25;;
75437;SDS011;64015;49.392;15.582;2023-04-08T12:45:00;9.68;;;5.00;;
75437;SDS011;64015;49.392;15.582;2023-04-08T12:47:25;11.32;;;6.25;;
75437;SDS011;64015;49.392;15.582;2023-04-08T12:49:51;10.25;;;5.65;;
75437;SDS011;64015;49.392;15.582;2023-04-08T12:52:17;10.15;;;5.72;;
75437;SDS011;64015;49.392;15.582;2023-04-08T12:54:43;9.70;;;5.35;;
75437;SDS011;64015;49.392;15.582;2023-04-08T12:57:09;8.32;;;5.72;;
75437;SDS011;64015;49.392;15.582;2023-04-08T13:03:17;25.50;;;10.50;;
75437;SDS011;64015;49.392;15.582;2023-04-08T13:12:23;11.35;;;6.40;;
75437;SDS011;64015;49.392;15.582;2023-04-08T13:15:40;12.32;;;6.25;;
75437;SDS011;64015;49.392;15.582;2023-04-08T13:30:46;9.15;;;5.70;;
75437;SDS011;64015;49.392;15.582;2023-04-08T13:33:12;9.32;;;5.65;;
75437;SDS011;64015;49.392;15.582;2023-04-08T13:36:41;9.25;;;6.10;;
75437;SDS011;64015;49.392;15.582;2023-04-08T13:41:42;12.05;;;6.38;;
75437;SDS011;64015;49.392;15.582;2023-04-08T13:44:09;13.15;;;8.02;;
75437;SDS011;64015;49.392;15.582;2023-04-08T13:46:44;11.60;;;6.45;;
75437;SDS011;64015;49.392;15.582;2023-04-08T13:49:10;9.95;;;6.15;;
75437;SDS011;64015;49.392;15.582;2023-04-08T14:01:13;9.95;;;6.57;;
75437;SDS011;64015;49.392;15.582;2023-04-08T14:03:39;11.68;;;7.03;;
75437;SDS011;64015;49.392;15.582;2023-04-08T14:06:07;9.82;;;6.72;;
75437;SDS011;64015;49.392;15.582;2023-04-08T14:09:50;10.65;;;6.68;;
75437;SDS011;64015;49.392;15.582;2023-04-08T14:12:38;8.40;;;6.00;;
75437;SDS011;64015;49.392;15.582;2023-04-08T14:15:07;9.98;;;6.47;;
75437;SDS011;64015;49.392;15.582;2023-04-08T14:17:36;16.95;;;6.95;;
75437;SDS011;64015;49.392;15.582;2023-04-08T14:21:03;10.45;;;5.95;;
75437;SDS011;64015;49.392;15.582;2023-04-08T14:23:29;10.70;;;6.57;;
75437;SDS011;64015;49.392;15.582;2023-04-08T14:29:05;9.88;;;6.00;;
75437;SDS011;64015;49.392;15.582;2023-04-08T14:32:09;11.13;;;6.68;;
75437;SDS011;64015;49.392;15.582;2023-04-08T14:42:52;13.65;;;7.63;;
75437;SDS011;64015;49.392;15.582;2023-04-08T14:45:23;10.55;;;6.80;;
75437;SDS011;64015;49.392;15.582;2023-04-08T14:48:08;14.82;;;8.75;;
75437;SDS011;64015;49.392;15.582;2023-04-08T14:50:49;12.35;;;7.55;;
75437;SDS011;64015;49.392;15.582;2023-04-08T14:53:18;13.88;;;8.98;;
75437;SDS011;64015;49.392;15.582;2023-04-08T14:55:49;14.93;;;9.05;;
75437;SDS011;64015;49.392;15.582;2023-04-08T15:01:59;15.02;;;8.50;;
75437;SDS011;64015;49.392;15.582;2023-04-08T15:04:25;13.95;;;7.50;;
75437;SDS011;64015;49.392;15.582;2023-04-08T15:09:48;15.70;;;9.07;;
75437;SDS011;64015;49.392;15.582;2023-04-08T17:02:39;29.23;;;12.70;;
75437;SDS011;64015;49.392;15.582;2023-04-08T17:05:11;24.58;;;11.55;;
75437;SDS011;64015;49.392;15.582;2023-04-08T17:32:00;29.23;;;12.73;;
75437;SDS011;64015;49.392;15.582;2023-04-08T17:38:21;22.90;;;11.07;;
75437;SDS011;64015;49.392;15.582;2023-04-08T17:47:12;32.75;;;13.45;;
75437;SDS011;64015;49.392;15.582;2023-04-08T17:53:11;28.48;;;12.25;;
75437;SDS011;64015;49.392;15.582;2023-04-08T17:55:42;31.00;;;14.65;;
75437;SDS011;64015;49.392;15.582;2023-04-08T17:58:45;35.28;;;15.82;;
75437;SDS011;64015;49.392;15.582;2023-04-08T18:04:17;32.67;;;15.40;;
75437;SDS011;64015;49.392;15.582;2023-04-08T18:06:46;35.40;;;15.45;;
75437;SDS011;64015;49.392;15.582;2023-04-08T18:09:18;32.60;;;14.77;;
75437;SDS011;64015;49.392;15.582;2023-04-08T18:11:47;30.63;;;14.30;;
75437;SDS011;64015;49.392;15.582;2023-04-08T18:14:23;33.92;;;15.40;;
75437;SDS011;64015;49.392;15.582;2023-04-08T18:17:12;38.80;;;19.90;;
75437;SDS011;64015;49.392;15.582;2023-04-08T18:20:22;30.15;;;13.82;;
75437;SDS011;64015;49.392;15.582;2023-04-08T18:22:48;35.03;;;16.33;;
75437;SDS011;64015;49.392;15.582;2023-04-08T18:25:16;31.50;;;14.52;;
75437;SDS011;64015;49.392;15.582;2023-04-08T18:27:49;40.58;;;17.38;;
75437;SDS011;64015;49.392;15.582;2023-04-08T18:30:17;37.33;;;19.17;;
75437;SDS011;64015;49.392;15.582;2023-04-08T18:32:59;36.40;;;17.50;;
75437;SDS011;64015;49.392;15.582;2023-04-08T18:35:29;35.20;;;16.80;;
75437;SDS011;64015;49.392;15.582;2023-04-08T18:38:15;35.03;;;15.68;;
75437;SDS011;64015;49.392;15.582;2023-04-08T18:40:41;35.17;;;15.88;;
75437;SDS011;64015;49.392;15.582;2023-04-08T18:43:09;36.80;;;17.13;;
75437;SDS011;64015;49.392;15.582;2023-04-08T18:45:40;34.35;;;17.02;;
75437;SDS011;64015;49.392;15.582;2023-04-08T18:48:06;29.52;;;14.15;;
75437;SDS011;64015;49.392;15.582;2023-04-08T18:53:24;29.25;;;12.88;;
75437;SDS011;64015;49.392;15.582;2023-04-08T18:55:50;29.00;;;12.80;;
75437;SDS011;64015;49.392;15.582;2023-04-08T19:02:29;32.22;;;16.77;;
75437;SDS011;64015;49.392;15.582;2023-04-08T19:04:55;36.05;;;17.25;;
75437;SDS011;64015;49.392;15.582;2023-04-08T19:07:28;26.17;;;12.25;;
75437;SDS011;64015;49.392;15.582;2023-04-08T19:17:21;28.05;;;12.57;;
75437;SDS011;64015;49.392;15.582;2023-04-08T19:19:47;28.80;;;13.50;;
75437;SDS011;64015;49.392;15.582;2023-04-08T19:22:16;37.05;;;15.88;;
75437;SDS011;64015;49.392;15.582;2023-04-08T19:24:47;34.42;;;17.48;;
75437;SDS011;64015;49.392;15.582;2023-04-08T19:27:39;31.25;;;15.85;;
75437;SDS011;64015;49.392;15.582;2023-04-08T19:30:40;30.13;;;14.27;;
75437;SDS011;64015;49.392;15.582;2023-04-08T19:33:39;29.83;;;14.52;;
75437;SDS011;64015;49.392;15.582;2023-04-08T19:36:21;28.55;;;13.07;;
75437;SDS011;64015;49.392;15.582;2023-04-08T19:43:01;29.58;;;12.90;;